createdAt,value
2023-02-19T00:01:48.515Z,6.47
2023-02-19T00:04:18.876Z,9.32
2023-02-19T00:06:49.822Z,6.65
2023-02-19T00:09:19.044Z,6.22
2023-02-19T00:11:47.730Z,7.85
2023-02-19T00:14:18.266Z,6.35
2023-02-19T00:16:45.581Z,8.35
2023-02-19T00:19:15.211Z,6.25
2023-02-19T00:21:44.962Z,5.57
2023-02-19T00:24:13.869Z,4.80
2023-02-19T00:26:47.483Z,7.03
2023-02-19T00:29:21.608Z,9.57
2023-02-19T00:31:49.258Z,7.60
2023-02-19T00:34:16.756Z,8.70
2023-02-19T00:36:46.443Z,11.13
2023-02-19T00:39:16.263Z,9.63
2023-02-19T00:41:44.519Z,10.80
2023-02-19T00:44:13.252Z,10.60
2023-02-19T00:46:46.042Z,11.35
2023-02-19T00:49:19.848Z,10.32
2023-02-19T00:51:47.771Z,10.52
2023-02-19T00:54:15.911Z,12.43
2023-02-19T00:56:45.821Z,15.23
2023-02-19T00:59:13.381Z,13.02
2023-02-19T01:01:41.258Z,16.50
2023-02-19T01:04:08.550Z,11.75
2023-02-19T01:06:35.920Z,12.20
2023-02-19T01:09:05.085Z,12.88
2023-02-19T01:11:35.341Z,13.13
2023-02-19T01:14:03.590Z,13.60
2023-02-19T01:16:31.155Z,12.85
2023-02-19T01:19:00.998Z,13.77
2023-02-19T01:21:31.402Z,13.82
2023-02-19T01:24:01.415Z,11.45
2023-02-19T01:26:31.821Z,11.63
2023-02-19T01:29:02.585Z,10.45
2023-02-19T01:31:35.021Z,9.70
2023-02-19T01:34:03.920Z,8.30
2023-02-19T01:36:34.016Z,10.68
2023-02-19T01:39:05.684Z,9.45
2023-02-19T01:41:39.564Z,9.00
2023-02-19T01:44:15.920Z,10.27
2023-02-19T01:46:46.474Z,11.27
2023-02-19T01:49:22.722Z,10.32
2023-02-19T01:51:56.990Z,13.48
2023-02-19T01:54:28.897Z,8.98
2023-02-19T01:56:59.318Z,10.02
2023-02-19T01:59:26.729Z,10.02
2023-02-19T02:01:54.012Z,9.80
2023-02-19T02:04:21.296Z,11.13
2023-02-19T02:06:54.876Z,9.90
2023-02-19T02:09:46.542Z,15.55
2023-02-19T02:12:14.031Z,9.15
2023-02-19T02:14:47.057Z,9.45
2023-02-19T02:17:39.124Z,10.18
2023-02-19T02:20:15.240Z,8.85
2023-02-19T02:23:16.632Z,5.88
2023-02-19T02:26:25.749Z,9.32
2023-02-19T02:29:29.803Z,6.97
2023-02-19T02:32:09.497Z,6.60
2023-02-19T02:34:51.676Z,7.55
2023-02-19T02:37:19.131Z,5.18
2023-02-19T02:39:47.756Z,4.38
2023-02-19T02:42:29.542Z,6.78
2023-02-19T02:45:16.807Z,10.98
2023-02-19T02:47:53.483Z,2.95
2023-02-19T02:50:28.838Z,5.53
2023-02-19T02:53:20.746Z,5.45
2023-02-19T02:55:51.835Z,10.75
2023-02-19T02:58:22.417Z,4.82
2023-02-19T03:01:15.076Z,4.90
2023-02-19T03:03:48.110Z,10.27
2023-02-19T03:06:18.529Z,5.72
2023-02-19T03:09:00.731Z,8.40
2023-02-19T03:11:49.595Z,7.43
2023-02-19T03:14:40.263Z,5.35
2023-02-19T03:17:40.603Z,7.03
2023-02-19T03:20:13.039Z,4.93
2023-02-19T03:22:44.471Z,9.38
2023-02-19T03:25:40.513Z,11.57
2023-02-19T03:28:12.537Z,6.97
2023-02-19T03:30:54.507Z,5.93
2023-02-19T03:33:29.986Z,8.02
2023-02-19T03:36:01.046Z,6.75
2023-02-19T03:38:31.990Z,6.88
2023-02-19T03:41:23.328Z,9.82
2023-02-19T03:44:12.283Z,7.72
2023-02-19T03:46:55.174Z,8.95
2023-02-19T03:49:33.312Z,4.43
2023-02-19T03:52:09.183Z,8.35
2023-02-19T03:54:52.979Z,5.45
2023-02-19T04:00:04.155Z,7.25
2023-02-19T04:03:06.857Z,8.68
2023-02-19T04:05:40.013Z,6.65
2023-02-19T04:08:14.006Z,6.90
2023-02-19T04:10:44.179Z,8.15
2023-02-19T04:13:26.792Z,8.82
2023-02-19T04:15:57.091Z,5.80
2023-02-19T04:18:31.376Z,6.00
2023-02-19T04:21:00.804Z,8.75
2023-02-19T04:23:38.676Z,4.13
2023-02-19T04:26:09.438Z,6.40
2023-02-19T04:28:38.438Z,7.13
2023-02-19T04:31:05.969Z,5.63
2023-02-19T04:33:33.199Z,5.80
2023-02-19T04:36:00.601Z,7.55
2023-02-19T04:38:27.836Z,8.27
2023-02-19T04:40:57.744Z,8.30
2023-02-19T04:43:27.218Z,10.10
2023-02-19T04:45:56.632Z,6.72
2023-02-19T04:48:23.870Z,6.25
2023-02-19T04:50:51.167Z,10.85
2023-02-19T04:53:20.935Z,6.95
2023-02-19T04:55:48.510Z,8.27
2023-02-19T04:58:15.757Z,5.57
2023-02-19T05:00:43.021Z,8.15
2023-02-19T05:03:12.715Z,10.65
2023-02-19T05:05:42.341Z,9.63
2023-02-19T05:08:09.569Z,10.98
2023-02-19T05:10:38.916Z,9.85
2023-02-19T05:13:06.154Z,12.68
2023-02-19T05:15:33.410Z,8.10
2023-02-19T05:18:00.730Z,3.95
2023-02-19T05:20:28.012Z,7.75
2023-02-19T05:22:55.431Z,10.00
2023-02-19T05:25:24.966Z,10.68
2023-02-19T05:28:12.234Z,5.38
2023-02-19T05:30:41.741Z,4.82
2023-02-19T05:33:09.057Z,10.63
2023-02-19T05:35:41.825Z,6.68
2023-02-19T05:38:09.804Z,7.85
2023-02-19T05:40:39.839Z,10.50
2023-02-19T05:43:08.213Z,9.27
2023-02-19T05:45:36.411Z,9.27
2023-02-19T05:48:07.070Z,13.07
2023-02-19T05:50:39.901Z,6.90
2023-02-19T05:53:09.403Z,9.23
2023-02-19T05:55:37.002Z,9.88
2023-02-19T05:58:04.280Z,8.25
2023-02-19T06:00:36.035Z,9.35
2023-02-19T06:03:03.445Z,7.53
2023-02-19T06:05:30.718Z,6.95
2023-02-19T06:07:58.031Z,11.00
2023-02-19T06:10:25.303Z,11.98
2023-02-19T06:12:55.755Z,11.38
2023-02-19T06:15:25.171Z,8.18
2023-02-19T06:17:52.393Z,9.40
2023-02-19T06:20:22.220Z,6.75
2023-02-19T06:22:54.464Z,9.80
2023-02-19T06:25:23.808Z,9.10
2023-02-19T06:27:53.594Z,12.10
2023-02-19T06:30:20.827Z,14.38
2023-02-19T06:32:48.224Z,11.25
2023-02-19T06:35:17.935Z,11.88
2023-02-19T06:37:50.081Z,10.63
2023-02-19T06:40:19.853Z,8.75
2023-02-19T06:42:47.090Z,9.65
2023-02-19T06:45:15.387Z,12.02
2023-02-19T06:47:42.686Z,5.80
2023-02-19T06:50:12.437Z,11.07
2023-02-19T06:52:39.703Z,9.02
2023-02-19T06:55:06.962Z,4.25
2023-02-19T06:57:34.226Z,10.90
2023-02-19T07:00:01.439Z,6.07
2023-02-19T07:02:28.757Z,9.45
2023-02-19T07:04:58.459Z,9.02
2023-02-19T07:07:25.645Z,10.13
2023-02-19T07:09:52.875Z,8.20
2023-02-19T07:12:27.097Z,13.45
2023-02-19T07:14:56.828Z,9.57
2023-02-19T07:17:26.546Z,5.82
2023-02-19T07:19:53.868Z,10.35
2023-02-19T07:22:21.172Z,10.80
2023-02-19T07:24:53.498Z,3.88
2023-02-19T07:27:20.753Z,8.65
2023-02-19T07:29:50.602Z,9.32
2023-02-19T07:32:17.908Z,8.27
2023-02-19T07:34:47.414Z,7.53
2023-02-19T07:37:14.647Z,8.63
2023-02-19T07:39:41.905Z,12.73
2023-02-19T07:42:09.147Z,9.75
2023-02-19T07:44:36.374Z,7.63
2023-02-19T07:47:03.661Z,8.77
2023-02-19T07:49:30.984Z,11.57
2023-02-19T07:52:02.963Z,8.23
2023-02-19T07:54:30.253Z,6.38
2023-02-19T07:57:02.165Z,5.57
2023-02-19T07:59:31.894Z,10.20
2023-02-19T08:02:17.867Z,8.10
2023-02-19T08:04:47.714Z,8.15
2023-02-19T08:07:15.016Z,6.45
2023-02-19T08:09:42.265Z,8.65
2023-02-19T08:12:30.169Z,8.25
2023-02-19T08:14:57.904Z,6.88
2023-02-19T08:17:27.655Z,7.82
2023-02-19T08:19:57.262Z,5.88
2023-02-19T08:22:24.508Z,6.15
2023-02-19T08:24:54.128Z,11.13
2023-02-19T08:27:23.665Z,10.00
2023-02-19T08:29:53.374Z,11.88
2023-02-19T08:32:20.673Z,8.40
2023-02-19T08:34:47.910Z,9.38
2023-02-19T08:37:17.296Z,7.75
2023-02-19T08:39:44.523Z,13.15
2023-02-19T08:42:13.971Z,8.60
2023-02-19T08:44:43.644Z,9.15
2023-02-19T08:47:13.345Z,8.48
2023-02-19T08:49:40.644Z,7.10
2023-02-19T08:52:10.075Z,5.60
2023-02-19T08:54:37.403Z,12.70
2023-02-19T08:57:05.221Z,14.05
2023-02-19T08:59:34.946Z,5.32
2023-02-19T09:02:02.229Z,8.43
2023-02-19T09:04:34.138Z,9.63
2023-02-19T09:07:01.447Z,9.55
2023-02-19T09:09:35.646Z,4.13
2023-02-19T09:12:08.242Z,5.50
2023-02-19T09:14:35.935Z,11.93
2023-02-19T09:17:05.413Z,9.52
2023-02-19T09:19:33.385Z,9.23
2023-02-19T09:22:00.980Z,7.22
2023-02-19T09:24:32.026Z,11.35
2023-02-19T09:26:59.442Z,9.75
2023-02-19T09:29:28.185Z,6.95
2023-02-19T09:32:00.214Z,7.32
2023-02-19T09:34:28.925Z,7.53
2023-02-19T09:36:58.672Z,9.45
2023-02-19T09:39:28.168Z,6.38
2023-02-19T09:42:17.650Z,8.95
2023-02-19T09:44:49.879Z,13.63
2023-02-19T09:47:22.754Z,8.15
2023-02-19T09:49:54.626Z,11.40
2023-02-19T09:52:33.169Z,6.20
2023-02-19T09:55:16.214Z,8.65
2023-02-19T09:57:47.192Z,6.22
2023-02-19T10:00:26.239Z,9.60
2023-02-19T10:03:06.728Z,6.82
2023-02-19T10:05:38.931Z,4.25
2023-02-19T10:08:12.732Z,9.05
2023-02-19T10:10:41.487Z,8.65
2023-02-19T10:13:19.991Z,8.88
2023-02-19T10:15:56.480Z,7.60
2023-02-19T10:18:31.600Z,10.07
2023-02-19T10:20:59.011Z,9.63
2023-02-19T10:23:29.289Z,7.53
2023-02-19T10:26:01.923Z,5.25
2023-02-19T10:28:33.773Z,14.77
2023-02-19T10:31:04.218Z,8.65
2023-02-19T10:33:32.094Z,7.82
2023-02-19T10:36:03.313Z,8.15
2023-02-19T10:38:30.479Z,13.32
2023-02-19T10:41:04.790Z,6.13
2023-02-19T10:43:39.904Z,9.07
2023-02-19T10:46:16.685Z,11.60
2023-02-19T10:49:05.783Z,11.95
2023-02-19T10:51:41.563Z,5.85
2023-02-19T10:54:36.458Z,4.70
2023-02-19T10:57:15.605Z,10.02
2023-02-19T10:59:51.291Z,8.77
2023-02-19T11:02:21.322Z,9.63
2023-02-19T11:05:17.026Z,7.32
2023-02-19T11:07:53.574Z,12.05
2023-02-19T11:10:52.832Z,14.40
2023-02-19T11:13:32.425Z,8.25
2023-02-19T11:16:00.643Z,11.65
2023-02-19T11:18:30.780Z,9.85
2023-02-19T11:21:04.077Z,6.38
2023-02-19T11:23:47.272Z,7.55
2023-02-19T11:26:23.282Z,10.40
2023-02-19T11:29:04.367Z,8.38
2023-02-19T11:31:36.137Z,11.88
2023-02-19T11:34:26.148Z,14.68
2023-02-19T11:37:13.639Z,13.55
2023-02-19T11:39:46.500Z,11.43
2023-02-19T11:43:11.034Z,11.52
2023-02-19T11:45:49.591Z,11.85
2023-02-19T11:48:20.194Z,11.50
2023-02-19T11:51:03.960Z,12.00
2023-02-19T11:53:38.385Z,11.15
2023-02-19T11:56:27.940Z,8.93
2023-02-19T11:59:18.668Z,6.82
2023-02-19T12:02:14.155Z,6.78
2023-02-19T12:05:12.457Z,7.47
2023-02-19T12:08:05.729Z,13.73
2023-02-19T12:10:57.132Z,8.70
2023-02-19T12:13:39.440Z,7.43
2023-02-19T12:16:18.056Z,9.48
2023-02-19T12:19:09.836Z,6.47
2023-02-19T12:21:51.507Z,10.68
2023-02-19T12:24:46.887Z,9.57
2023-02-19T12:27:34.422Z,15.75
2023-02-19T12:30:40.619Z,10.82
2023-02-19T12:33:22.966Z,10.65
2023-02-19T12:36:00.393Z,17.35
2023-02-19T12:38:35.455Z,15.23
2023-02-19T12:41:15.616Z,18.42
2023-02-19T12:44:09.619Z,13.68
2023-02-19T12:46:42.444Z,14.30
2023-02-19T12:49:19.626Z,9.88
2023-02-19T12:51:55.206Z,14.30
2023-02-19T12:54:28.021Z,9.48
2023-02-19T12:57:01.677Z,10.73
2023-02-19T12:59:49.364Z,12.10
2023-02-19T13:02:26.693Z,9.93
2023-02-19T13:05:20.607Z,15.20
2023-02-19T13:08:02.322Z,20.27
2023-02-19T13:10:32.379Z,12.98
2023-02-19T13:13:06.358Z,13.85
2023-02-19T13:15:46.240Z,11.70
2023-02-19T13:18:27.908Z,8.45
2023-02-19T13:20:58.006Z,8.13
2023-02-19T13:23:51.453Z,9.55
2023-02-19T13:26:56.019Z,8.18
2023-02-19T13:29:42.777Z,11.18
2023-02-19T13:32:20.791Z,14.57
2023-02-19T13:34:48.063Z,10.85
2023-02-19T13:37:17.004Z,15.43
2023-02-19T13:39:55.526Z,13.80
2023-02-19T13:42:33.537Z,14.48
2023-02-19T13:45:03.176Z,13.25
2023-02-19T13:47:49.252Z,14.43
2023-02-19T13:50:28.293Z,12.38
2023-02-19T13:52:57.601Z,14.60
2023-02-19T13:55:42.765Z,11.18
2023-02-19T13:58:40.222Z,10.82
2023-02-19T14:01:13.912Z,11.57
2023-02-19T14:04:06.876Z,8.82
2023-02-19T14:07:03.096Z,10.95
2023-02-19T14:09:45.882Z,9.30
2023-02-19T14:12:15.515Z,9.02
2023-02-19T14:14:55.806Z,7.30
2023-02-19T14:17:35.438Z,10.50
2023-02-19T14:20:11.847Z,6.30
2023-02-19T14:23:01.303Z,7.35
2023-02-19T14:25:34.315Z,8.32
2023-02-19T14:28:17.361Z,8.10
2023-02-19T14:30:50.567Z,5.90
2023-02-19T14:33:26.300Z,6.38
2023-02-19T14:36:18.386Z,4.93
2023-02-19T14:38:53.434Z,6.57
2023-02-19T14:41:23.379Z,7.15
2023-02-19T14:43:56.073Z,5.60
2023-02-19T14:46:41.449Z,5.97
2023-02-19T14:49:42.505Z,2.97
2023-02-19T14:52:33.675Z,5.47
2023-02-19T14:55:04.160Z,7.85
2023-02-19T14:57:35.762Z,3.47
2023-02-19T15:00:24.571Z,4.88
2023-02-19T15:02:56.752Z,3.95
2023-02-19T15:05:29.954Z,5.10
2023-02-19T15:08:03.203Z,3.72
2023-02-19T15:10:32.386Z,2.88
2023-02-19T15:13:06.029Z,4.13
2023-02-19T15:15:37.479Z,5.93
2023-02-19T15:18:05.636Z,6.85
2023-02-19T15:20:37.813Z,3.60
2023-02-19T15:23:07.469Z,4.13
2023-02-19T15:25:37.891Z,3.17
2023-02-19T15:28:21.600Z,3.55
2023-02-19T15:30:51.278Z,5.43
2023-02-19T15:33:20.373Z,3.42
2023-02-19T15:35:53.373Z,4.57
2023-02-19T15:38:20.789Z,5.47
2023-02-19T15:40:49.402Z,5.05
2023-02-19T15:43:30.348Z,5.82
2023-02-19T15:46:14.786Z,4.03
2023-02-19T15:49:17.320Z,3.33
2023-02-19T15:51:56.644Z,3.28
2023-02-19T15:54:32.484Z,2.33
2023-02-19T15:57:05.732Z,1.27
2023-02-19T15:59:36.484Z,3.90
2023-02-19T16:02:04.838Z,4.80
2023-02-19T16:04:34.340Z,3.90
2023-02-19T16:07:03.712Z,4.32
2023-02-19T16:09:38.312Z,6.80
2023-02-19T16:12:25.230Z,3.15
2023-02-19T16:14:53.817Z,4.05
2023-02-19T16:17:23.172Z,3.10
2023-02-19T16:20:02.067Z,3.58
2023-02-19T16:22:32.014Z,4.95
2023-02-19T16:25:06.648Z,3.33
2023-02-19T16:27:35.871Z,2.95
2023-02-19T16:30:38.392Z,2.80
2023-02-19T16:33:28.669Z,4.03
2023-02-19T16:35:58.892Z,3.55
2023-02-19T16:38:26.289Z,5.95
2023-02-19T16:41:06.749Z,4.05
2023-02-19T16:43:44.766Z,6.93
2023-02-19T16:46:13.680Z,3.58
2023-02-19T16:48:43.525Z,3.67
2023-02-19T16:51:21.758Z,5.25
2023-02-19T16:53:49.001Z,5.47
2023-02-19T16:56:21.161Z,4.82
2023-02-19T16:58:51.617Z,4.25
2023-02-19T17:01:19.092Z,2.65
2023-02-19T17:03:49.202Z,6.10
2023-02-19T17:06:16.860Z,4.78
2023-02-19T17:08:44.850Z,3.38
2023-02-19T17:11:15.053Z,5.15
2023-02-19T17:13:46.267Z,3.97
2023-02-19T17:16:28.504Z,4.88
2023-02-19T17:18:56.087Z,4.97
2023-02-19T17:21:28.763Z,6.05
2023-02-19T17:23:57.089Z,4.83
2023-02-19T17:26:28.042Z,6.18
2023-02-19T17:29:04.397Z,6.28
2023-02-19T17:31:34.663Z,5.10
2023-02-19T17:34:01.959Z,4.78
2023-02-19T17:36:31.259Z,3.63
2023-02-19T17:39:03.825Z,4.93
2023-02-19T17:41:33.430Z,6.03
2023-02-19T17:44:00.673Z,3.47
2023-02-19T17:46:28.119Z,6.00
2023-02-19T17:49:00.059Z,6.63
2023-02-19T17:51:28.008Z,5.20
2023-02-19T17:53:55.306Z,4.75
2023-02-19T17:56:25.635Z,5.40
2023-02-19T17:58:53.661Z,6.03
2023-02-19T18:01:23.918Z,4.35
2023-02-19T18:03:53.726Z,6.10
2023-02-19T18:06:23.208Z,6.32
2023-02-19T18:08:54.841Z,4.25
2023-02-19T18:11:23.668Z,5.00
2023-02-19T18:13:52.328Z,4.10
2023-02-19T18:16:20.075Z,5.57
2023-02-19T18:18:47.480Z,5.03
2023-02-19T18:21:17.247Z,3.22
2023-02-19T18:23:46.872Z,5.13
2023-02-19T18:26:19.814Z,5.20
2023-02-19T18:28:47.140Z,4.95
2023-02-19T18:31:14.709Z,5.95
2023-02-19T18:33:45.151Z,6.80
2023-02-19T18:36:13.003Z,8.85
2023-02-19T18:38:45.676Z,5.55
2023-02-19T18:41:20.262Z,6.13
2023-02-19T18:43:48.313Z,6.90
2023-02-19T18:46:16.116Z,6.88
2023-02-19T18:48:46.702Z,8.40
2023-02-19T18:51:14.098Z,6.20
2023-02-19T18:53:43.276Z,8.35
2023-02-19T18:56:10.541Z,6.20
2023-02-19T18:58:40.357Z,8.80
2023-02-19T19:01:12.739Z,9.07
2023-02-19T19:03:42.497Z,8.60
2023-02-19T19:06:12.381Z,7.82
2023-02-19T19:08:39.645Z,7.18
2023-02-19T19:11:09.317Z,7.03
2023-02-19T19:13:39.042Z,9.80
2023-02-19T19:16:06.545Z,10.90
2023-02-19T19:18:38.079Z,8.10
2023-02-19T19:21:09.681Z,10.48
2023-02-19T19:23:37.088Z,8.07
2023-02-19T19:26:10.679Z,9.18
2023-02-19T19:28:44.510Z,12.13
2023-02-19T19:33:40.639Z,9.57
2023-02-19T19:36:09.185Z,12.02
2023-02-19T19:38:37.004Z,9.48
2023-02-19T19:41:05.825Z,10.80
2023-02-19T19:43:35.785Z,12.52
2023-02-19T19:46:10.050Z,14.77
2023-02-19T19:48:39.837Z,13.60
2023-02-19T19:51:08.129Z,12.93
2023-02-19T19:53:40.583Z,11.25
2023-02-19T19:56:10.801Z,17.25
2023-02-19T19:58:40.514Z,17.15
2023-02-19T20:01:12.454Z,16.70
2023-02-19T20:03:42.816Z,14.85
2023-02-19T20:06:10.088Z,12.90
2023-02-19T20:08:37.322Z,18.35
2023-02-19T20:11:07.277Z,13.60
2023-02-19T20:13:34.574Z,12.27
2023-02-19T20:16:04.338Z,16.08
2023-02-19T20:18:31.573Z,16.48
2023-02-19T20:21:01.444Z,15.35
2023-02-19T20:23:28.716Z,10.00
2023-02-19T20:25:57.852Z,9.57
2023-02-19T20:28:25.140Z,12.82
2023-02-19T20:30:52.425Z,11.60
2023-02-19T20:33:22.208Z,13.25
2023-02-19T20:35:49.470Z,13.38
2023-02-19T20:38:17.240Z,17.33
2023-02-19T20:40:44.529Z,12.07
2023-02-19T20:43:14.111Z,13.70
2023-02-19T20:45:43.082Z,11.75
2023-02-19T20:48:13.253Z,11.15
2023-02-19T20:50:43.062Z,12.10
2023-02-19T20:53:17.282Z,14.38
2023-02-19T20:55:44.659Z,9.38
2023-02-19T20:58:12.011Z,9.63
2023-02-19T21:00:41.441Z,11.95
2023-02-19T21:03:11.717Z,10.68
2023-02-19T21:05:44.210Z,11.77
2023-02-19T21:08:11.825Z,13.02
2023-02-19T21:10:41.440Z,14.02
2023-02-19T21:13:08.698Z,10.55
2023-02-19T21:15:38.184Z,16.38
2023-02-19T21:18:08.004Z,11.50
2023-02-19T21:20:37.474Z,12.38
2023-02-19T21:23:04.797Z,12.95
2023-02-19T21:25:33.178Z,11.88
2023-02-19T21:28:00.499Z,14.98
2023-02-19T21:30:30.218Z,11.18
2023-02-19T21:32:57.623Z,10.35
2023-02-19T21:35:24.866Z,11.30
2023-02-19T21:37:54.333Z,9.02
2023-02-19T21:40:23.388Z,11.25
2023-02-19T21:42:50.663Z,12.82
2023-02-19T21:45:17.942Z,14.57
2023-02-19T21:47:46.715Z,10.00
2023-02-19T21:50:13.983Z,9.73
2023-02-19T21:52:43.685Z,9.32
2023-02-19T21:55:13.278Z,10.07
2023-02-19T21:57:43.472Z,10.85
2023-02-19T22:00:11.308Z,10.43
2023-02-19T22:02:40.918Z,11.00
2023-02-19T22:05:08.312Z,16.58
2023-02-19T22:07:38.194Z,12.32
2023-02-19T22:10:07.898Z,12.10
2023-02-19T22:12:39.623Z,10.48
2023-02-19T22:15:07.198Z,12.57
2023-02-19T22:17:36.828Z,14.15
2023-02-19T22:20:04.917Z,8.38
2023-02-19T22:22:34.611Z,13.70
2023-02-19T22:25:03.966Z,12.20
2023-02-19T22:27:33.681Z,14.13
2023-02-19T22:30:01.022Z,13.50
2023-02-19T22:32:33.160Z,12.07
2023-02-19T22:35:00.498Z,13.60
2023-02-19T22:37:29.700Z,15.68
2023-02-19T22:39:56.911Z,16.05
2023-02-19T22:42:25.285Z,12.48
2023-02-19T22:44:52.589Z,15.70
2023-02-19T22:47:22.100Z,12.77
2023-02-19T22:49:49.370Z,14.73
2023-02-19T22:52:16.673Z,15.65
2023-02-19T22:54:49.712Z,15.52
2023-02-19T22:57:16.953Z,14.30
2023-02-19T22:59:46.751Z,16.42
2023-02-19T23:02:14.036Z,17.08
2023-02-19T23:04:43.463Z,14.05
2023-02-19T23:07:12.947Z,14.80
2023-02-19T23:09:40.235Z,15.63
2023-02-19T23:12:10.525Z,18.13
2023-02-19T23:14:38.269Z,18.02
2023-02-19T23:17:05.571Z,20.10
2023-02-19T23:19:33.018Z,18.70
2023-02-19T23:22:00.419Z,17.00
2023-02-19T23:24:29.862Z,18.27
2023-02-19T23:26:57.677Z,17.52
2023-02-19T23:29:26.676Z,17.80
2023-02-19T23:31:54.709Z,17.65
2023-02-19T23:34:22.989Z,21.48
2023-02-19T23:36:51.060Z,18.38
2023-02-19T23:39:21.439Z,17.67
2023-02-19T23:41:53.976Z,18.75
2023-02-19T23:44:25.012Z,18.00
2023-02-19T23:46:52.816Z,13.68
2023-02-19T23:49:20.535Z,14.90
2023-02-19T23:51:47.944Z,17.08
2023-02-19T23:54:17.677Z,15.13
2023-02-19T23:56:47.372Z,13.95
2023-02-19T23:59:15.504Z,15.15
